BKC400 ZSAM-ZGSZ
Flight info
| Callsign | BKC400 |
|---|---|
| Flight time | 0h 57m |
| Altitude | 30100 |
| Route | NUSPA9Z NUSPA W597 IKATA A470 BEBEM R200 GUBLO |
| Aircraft | A320/M-SDE3FGHIRWY/LB1 |
Departure
| Time | 2026-05-04 10:25 |
|---|---|
| Airport | Xiamen Gaoqi International Airport (ZSAM) |
Arrival
| Time | 2026-05-04 11:22 |
|---|---|
| Airport | Shenzhen Bao'an International Airport (ZGSZ) |
| Time | Latitude | Longitude | Altitude | Speed | Heading |
|---|---|---|---|---|---|
| 2026-05-04 10:05 | 24.53744 | 118.12531 | 45 ft | 0 kts | 142° |
| 2026-05-04 10:16 | 24.53760 | 118.12519 | 45 ft | 4 kts | 142° |
| 2026-05-04 10:16 | 24.53781 | 118.12501 | 41 ft | 4 kts | 142° |
| 2026-05-04 10:16 | 24.53799 | 118.12487 | 42 ft | 4 kts | 163° |
| 2026-05-04 10:17 | 24.53823 | 118.12489 | 43 ft | 4 kts | 219° |
| 2026-05-04 10:17 | 24.53837 | 118.12504 | 43 ft | 0 kts | 231° |
| 2026-05-04 10:20 | 24.53834 | 118.12500 | 43 ft | 3 kts | 231° |
| 2026-05-04 10:20 | 24.53800 | 118.12453 | 45 ft | 12 kts | 231° |
| 2026-05-04 10:20 | 24.53746 | 118.12378 | 45 ft | 12 kts | 232° |
| 2026-05-04 10:21 | 24.53694 | 118.12303 | 45 ft | 13 kts | 232° |
| 2026-05-04 10:21 | 24.53638 | 118.12227 | 42 ft | 13 kts | 230° |
| 2026-05-04 10:21 | 24.53581 | 118.12152 | 45 ft | 8 kts | 231° |
| 2026-05-04 10:21 | 24.53545 | 118.12098 | 44 ft | 9 kts | 246° |
| 2026-05-04 10:22 | 24.53636 | 118.11979 | 44 ft | 10 kts | 269° |
| 2026-05-04 10:22 | 24.53593 | 118.11909 | 44 ft | 12 kts | 229° |
| 2026-05-04 10:22 | 24.53538 | 118.11838 | 45 ft | 13 kts | 229° |
| 2026-05-04 10:23 | 24.53478 | 118.11759 | 42 ft | 14 kts | 233° |
| 2026-05-04 10:23 | 24.53463 | 118.11691 | 45 ft | 9 kts | 314° |
| 2026-05-04 10:25 | 24.55803 | 118.14673 | 766 ft | 179 kts | 51° |
| 2026-05-04 10:25 | 24.56599 | 118.15786 | 1289 ft | 191 kts | 50° |
| 2026-05-04 10:25 | 24.57421 | 118.16940 | 2042 ft | 192 kts | 51° |
| 2026-05-04 10:25 | 24.58243 | 118.18098 | 2806 ft | 192 kts | 52° |
| 2026-05-04 10:26 | 24.59065 | 118.19253 | 3513 ft | 195 kts | 52° |
| 2026-05-04 10:26 | 24.59695 | 118.20179 | 4009 ft | 200 kts | 52° |
| 2026-05-04 10:26 | 24.60608 | 118.21409 | 4658 ft | 207 kts | 47° |
| 2026-05-04 10:26 | 24.61500 | 118.22687 | 5267 ft | 215 kts | 56° |
| 2026-05-04 10:27 | 24.62097 | 118.24231 | 5866 ft | 226 kts | 77° |
| 2026-05-04 10:27 | 24.62094 | 118.25976 | 6452 ft | 233 kts | 105° |
| 2026-05-04 10:27 | 24.61383 | 118.27569 | 7066 ft | 235 kts | 134° |
| 2026-05-04 10:27 | 24.60095 | 118.28649 | 7689 ft | 233 kts | 162° |
| 2026-05-04 10:28 | 24.58549 | 118.28987 | 8314 ft | 228 kts | 189° |
| 2026-05-04 10:28 | 24.57048 | 118.28577 | 8987 ft | 220 kts | 214° |
| 2026-05-04 10:28 | 24.55875 | 118.27566 | 9714 ft | 212 kts | 235° |
| 2026-05-04 10:28 | 24.54959 | 118.26301 | 10410 ft | 211 kts | 236° |
| 2026-05-04 10:29 | 24.54042 | 118.25032 | 11061 ft | 212 kts | 236° |
| 2026-05-04 10:29 | 24.53121 | 118.23763 | 11722 ft | 213 kts | 235° |
| 2026-05-04 10:29 | 24.52193 | 118.22487 | 12380 ft | 214 kts | 234° |
| 2026-05-04 10:29 | 24.51260 | 118.21206 | 13033 ft | 215 kts | 234° |
| 2026-05-04 10:30 | 24.50288 | 118.19852 | 13291 ft | 237 kts | 234° |
| 2026-05-04 10:30 | 24.49229 | 118.18353 | 13461 ft | 260 kts | 234° |
| 2026-05-04 10:30 | 24.48076 | 118.16713 | 13605 ft | 282 kts | 234° |
| 2026-05-04 10:30 | 24.46834 | 118.14950 | 13735 ft | 303 kts | 234° |
| 2026-05-04 10:31 | 24.45493 | 118.13054 | 13894 ft | 321 kts | 234° |
| 2026-05-04 10:31 | 24.44098 | 118.11093 | 14312 ft | 329 kts | 233° |
| 2026-05-04 10:32 | 24.35455 | 117.98949 | 17625 ft | 344 kts | 234° |
| 2026-05-04 10:33 | 24.33975 | 117.96872 | 18175 ft | 347 kts | 234° |
| 2026-05-04 10:33 | 24.32484 | 117.94781 | 18680 ft | 349 kts | 234° |
| 2026-05-04 10:33 | 24.30983 | 117.92677 | 19153 ft | 352 kts | 234° |
| 2026-05-04 10:33 | 24.29470 | 117.90557 | 19621 ft | 355 kts | 234° |
| 2026-05-04 10:34 | 24.27942 | 117.88418 | 20092 ft | 357 kts | 234° |
| 2026-05-04 10:34 | 24.26406 | 117.86264 | 20538 ft | 360 kts | 234° |
| 2026-05-04 10:34 | 24.24842 | 117.84100 | 20984 ft | 364 kts | 232° |
| 2026-05-04 10:34 | 24.23054 | 117.82102 | 21406 ft | 369 kts | 228° |
| 2026-05-04 10:35 | 24.21214 | 117.80126 | 21850 ft | 372 kts | 228° |
| 2026-05-04 10:35 | 24.19356 | 117.78136 | 22275 ft | 375 kts | 228° |
| 2026-05-04 10:35 | 24.17484 | 117.76133 | 22662 ft | 377 kts | 228° |
| 2026-05-04 10:35 | 24.15625 | 117.74143 | 23037 ft | 380 kts | 228° |
| 2026-05-04 10:36 | 24.13727 | 117.72110 | 23460 ft | 383 kts | 229° |
| 2026-05-04 10:36 | 24.11819 | 117.70061 | 23816 ft | 386 kts | 229° |
| 2026-05-04 10:36 | 24.09886 | 117.67984 | 24150 ft | 388 kts | 229° |
| 2026-05-04 10:36 | 24.07951 | 117.65910 | 24506 ft | 390 kts | 228° |
| 2026-05-04 10:37 | 24.06005 | 117.63830 | 24853 ft | 392 kts | 228° |
| 2026-05-04 10:37 | 24.04048 | 117.61740 | 25204 ft | 394 kts | 228° |
| 2026-05-04 10:37 | 24.02086 | 117.59639 | 25546 ft | 396 kts | 228° |
| 2026-05-04 10:37 | 24.00117 | 117.57525 | 25879 ft | 397 kts | 228° |
| 2026-05-04 10:39 | 23.88112 | 117.44677 | 27790 ft | 409 kts | 227° |
| 2026-05-04 10:39 | 23.86107 | 117.42464 | 28119 ft | 409 kts | 232° |
| 2026-05-04 10:39 | 23.84439 | 117.39958 | 28448 ft | 408 kts | 241° |
| 2026-05-04 10:40 | 23.83213 | 117.37165 | 28782 ft | 409 kts | 250° |
| 2026-05-04 10:40 | 23.82350 | 117.34198 | 29090 ft | 411 kts | 253° |
| 2026-05-04 10:40 | 23.81506 | 117.31194 | 29407 ft | 414 kts | 253° |
| 2026-05-04 10:40 | 23.80653 | 117.28181 | 29720 ft | 416 kts | 252° |
| 2026-05-04 10:41 | 23.79798 | 117.25172 | 30086 ft | 416 kts | 252° |
| 2026-05-04 10:41 | 23.78091 | 117.19189 | 30192 ft | 406 kts | 252° |
| 2026-05-04 10:42 | 23.75981 | 117.13530 | 30191 ft | 404 kts | 239° |
| 2026-05-04 10:42 | 23.72322 | 117.08852 | 30186 ft | 407 kts | 229° |
| 2026-05-04 10:43 | 23.68400 | 117.04396 | 30188 ft | 407 kts | 229° |
| 2026-05-04 10:45 | 23.52704 | 116.86550 | 30169 ft | 409 kts | 229° |
| 2026-05-04 10:45 | 23.48769 | 116.82079 | 30168 ft | 409 kts | 228° |
| 2026-05-04 10:46 | 23.44823 | 116.77608 | 30167 ft | 409 kts | 227° |
| 2026-05-04 10:46 | 23.40389 | 116.73669 | 30169 ft | 413 kts | 220° |
| 2026-05-04 10:47 | 23.36590 | 116.70513 | 30165 ft | 413 kts | 220° |
| 2026-05-04 10:47 | 23.32015 | 116.66708 | 30161 ft | 414 kts | 220° |
| 2026-05-04 10:49 | 23.13666 | 116.51480 | 30157 ft | 416 kts | 220° |
| 2026-05-04 10:50 | 23.09060 | 116.47676 | 30162 ft | 416 kts | 220° |
| 2026-05-04 10:51 | 22.94960 | 116.32579 | 30165 ft | 409 kts | 252° |
| 2026-05-04 10:52 | 22.94339 | 116.29577 | 30165 ft | 409 kts | 263° |
| 2026-05-04 10:52 | 22.93732 | 116.23426 | 30163 ft | 409 kts | 263° |
| 2026-05-04 10:54 | 22.91177 | 115.98898 | 30173 ft | 410 kts | 263° |
| 2026-05-04 10:56 | 22.88662 | 115.74303 | 30180 ft | 410 kts | 263° |
| 2026-05-04 10:57 | 22.88050 | 115.68152 | 30177 ft | 410 kts | 263° |
| 2026-05-04 10:57 | 22.87430 | 115.62011 | 30175 ft | 410 kts | 263° |
| 2026-05-04 10:58 | 22.86804 | 115.55869 | 30171 ft | 410 kts | 263° |
| 2026-05-04 10:58 | 22.86177 | 115.49720 | 30167 ft | 410 kts | 263° |
| 2026-05-04 10:59 | 22.85546 | 115.43565 | 30159 ft | 410 kts | 263° |
| 2026-05-04 10:59 | 22.84913 | 115.37421 | 30163 ft | 410 kts | 263° |
| 2026-05-04 11:00 | 22.84279 | 115.31325 | 29916 ft | 408 kts | 263° |
| 2026-05-04 11:01 | 22.82097 | 115.10275 | 27293 ft | 391 kts | 262° |
| 2026-05-04 11:02 | 22.81790 | 115.07361 | 26805 ft | 387 kts | 262° |
| 2026-05-04 11:02 | 22.81486 | 115.04475 | 26327 ft | 383 kts | 262° |
| 2026-05-04 11:05 | 22.77546 | 114.67026 | 20274 ft | 337 kts | 264° |
| 2026-05-04 11:06 | 22.77324 | 114.64809 | 19874 ft | 335 kts | 263° |
| 2026-05-04 11:06 | 22.77069 | 114.62293 | 19396 ft | 334 kts | 264° |
| 2026-05-04 11:06 | 22.76817 | 114.59818 | 18944 ft | 333 kts | 263° |
| 2026-05-04 11:06 | 22.76562 | 114.57321 | 18463 ft | 333 kts | 263° |
| 2026-05-04 11:08 | 22.74799 | 114.40186 | 15160 ft | 321 kts | 263° |
| 2026-05-04 11:10 | 22.73077 | 114.23549 | 11829 ft | 315 kts | 263° |
| 2026-05-04 11:12 | 22.71472 | 114.08137 | 10302 ft | 263 kts | 260° |
| 2026-05-04 11:12 | 22.70752 | 114.06380 | 10177 ft | 256 kts | 229° |
| 2026-05-04 11:12 | 22.69279 | 114.05392 | 10008 ft | 258 kts | 198° |
| 2026-05-04 11:12 | 22.67498 | 114.05458 | 9492 ft | 269 kts | 164° |
| 2026-05-04 11:13 | 22.65798 | 114.06304 | 9039 ft | 267 kts | 156° |
| 2026-05-04 11:13 | 22.64182 | 114.07274 | 8596 ft | 264 kts | 154° |
| 2026-05-04 11:13 | 22.62603 | 114.08266 | 8169 ft | 260 kts | 153° |
| 2026-05-04 11:13 | 22.60980 | 114.09028 | 7733 ft | 249 kts | 176° |
| 2026-05-04 11:14 | 22.60398 | 114.09072 | 7585 ft | 244 kts | 187° |
| 2026-05-04 11:16 | 22.53005 | 113.97007 | 4633 ft | 201 kts | 242° |
| 2026-05-04 11:16 | 22.52359 | 113.95668 | 4320 ft | 201 kts | 241° |
| 2026-05-04 11:16 | 22.51719 | 113.94342 | 4022 ft | 202 kts | 241° |
| 2026-05-04 11:17 | 22.51067 | 113.92992 | 3732 ft | 203 kts | 241° |
| 2026-05-04 11:17 | 22.50411 | 113.91637 | 3434 ft | 204 kts | 240° |
| 2026-05-04 11:19 | 22.55859 | 113.85482 | 1470 ft | 172 kts | 335° |
| 2026-05-04 11:19 | 22.56922 | 113.84901 | 1247 ft | 170 kts | 335° |
| 2026-05-04 11:19 | 22.57921 | 113.84359 | 1043 ft | 168 kts | 334° |
| 2026-05-04 11:19 | 22.58944 | 113.83795 | 836 ft | 166 kts | 334° |
| 2026-05-04 11:20 | 22.59970 | 113.83242 | 623 ft | 163 kts | 335° |
| 2026-05-04 11:20 | 22.60980 | 113.82687 | 414 ft | 163 kts | 333° |
| 2026-05-04 11:20 | 22.61987 | 113.82128 | 210 ft | 162 kts | 334° |
| 2026-05-04 11:20 | 22.62992 | 113.81575 | 26 ft | 161 kts | 334° |
| 2026-05-04 11:22 | 22.64481 | 113.81074 | 15 ft | 8 kts | 165° |
| 2026-05-04 11:22 | 22.64423 | 113.81104 | 15 ft | 10 kts | 153° |
| 2026-05-04 11:23 | 22.64352 | 113.81143 | 15 ft | 13 kts | 153° |
| 2026-05-04 11:23 | 22.64308 | 113.81168 | 15 ft | 7 kts | 153° |
| 2026-05-04 11:24 | 22.64193 | 113.81369 | 15 ft | 6 kts | 219° |
| 2026-05-04 11:25 | 22.64174 | 113.81334 | 15 ft | 3 kts | 244° |
| 2026-05-04 11:25 | 22.64170 | 113.81323 | 15 ft | 2 kts | 241° |
| 2026-05-04 11:25 | 22.64168 | 113.81318 | 15 ft | 0 kts | 245° |